createdAt,value
2023-05-02T00:00:47.123Z,38.00
2023-05-02T00:03:20.962Z,38.04
2023-05-02T00:05:52.044Z,37.86
2023-05-02T00:08:22.945Z,38.08
2023-05-02T00:10:51.821Z,37.99
2023-05-02T00:13:24.536Z,38.19
2023-05-02T00:15:54.958Z,38.12
2023-05-02T00:18:30.726Z,38.45
2023-05-02T00:21:01.640Z,38.45
2023-05-02T00:23:32.677Z,38.62
2023-05-02T00:26:01.670Z,38.58
2023-05-02T00:28:35.081Z,38.63
2023-05-02T00:31:06.299Z,38.69
2023-05-02T00:33:36.324Z,38.70
2023-05-02T00:36:14.128Z,38.85
2023-05-02T00:38:43.173Z,38.51
2023-05-02T00:41:14.066Z,38.83
2023-05-02T00:43:45.740Z,38.68
2023-05-02T00:46:16.403Z,38.79
2023-05-02T00:48:48.437Z,39.07
2023-05-02T00:51:20.174Z,39.14
2023-05-02T00:53:51.502Z,39.04
2023-05-02T00:56:22.037Z,39.07
2023-05-02T00:58:52.596Z,39.19
2023-05-02T01:01:46.138Z,39.33
2023-05-02T01:04:18.302Z,39.35
2023-05-02T01:07:11.945Z,39.45
2023-05-02T01:10:03.101Z,39.31
2023-05-02T01:12:45.459Z,39.51
2023-05-02T01:15:18.759Z,39.64
2023-05-02T01:17:50.097Z,39.40
2023-05-02T01:20:22.994Z,39.55
2023-05-02T01:22:55.234Z,39.67
2023-05-02T01:25:31.391Z,39.39
2023-05-02T01:28:16.731Z,39.95
2023-05-02T01:30:48.091Z,39.92
2023-05-02T01:33:18.290Z,39.77
2023-05-02T01:35:52.742Z,39.95
2023-05-02T01:38:24.992Z,39.96
2023-05-02T01:40:55.131Z,40.14
2023-05-02T01:43:27.135Z,40.37
2023-05-02T01:45:57.465Z,40.12
2023-05-02T01:48:29.319Z,40.36
2023-05-02T01:50:59.889Z,40.28
2023-05-02T01:53:31.392Z,40.24
2023-05-02T01:56:02.208Z,40.57
2023-05-02T01:58:33.503Z,40.38
2023-05-02T02:01:04.985Z,40.35
2023-05-02T02:03:35.947Z,40.63
2023-05-02T02:06:08.454Z,40.58
2023-05-02T02:08:37.674Z,40.61
2023-05-02T02:11:10.157Z,40.95
2023-05-02T02:13:45.492Z,40.92
2023-05-02T02:16:17.823Z,40.78
2023-05-02T02:18:48.737Z,40.99
2023-05-02T02:21:21.177Z,41.19
2023-05-02T02:23:52.342Z,41.08
2023-05-02T02:26:22.917Z,41.24
2023-05-02T02:28:52.281Z,41.31
2023-05-02T02:31:26.300Z,41.31
2023-05-02T02:33:56.240Z,41.50
2023-05-02T02:36:30.777Z,41.55
2023-05-02T02:39:13.669Z,41.50
2023-05-02T02:41:49.182Z,41.62
2023-05-02T02:44:27.714Z,41.65
2023-05-02T02:47:07.124Z,41.38
2023-05-02T02:49:38.702Z,41.94
2023-05-02T02:52:27.676Z,41.72
2023-05-02T02:55:15.949Z,41.80
2023-05-02T02:57:46.236Z,42.01
2023-05-02T03:00:26.910Z,42.15
2023-05-02T03:02:59.032Z,42.20
2023-05-02T03:05:29.688Z,41.98
2023-05-02T03:08:01.418Z,42.33
2023-05-02T03:10:30.054Z,42.45
2023-05-02T03:13:00.435Z,42.49
2023-05-02T03:15:44.828Z,42.48
2023-05-02T03:18:14.862Z,42.58
2023-05-02T03:20:44.018Z,42.68
2023-05-02T03:23:14.598Z,42.58
2023-05-02T03:25:45.385Z,42.69
2023-05-02T03:28:18.682Z,42.72
2023-05-02T03:30:50.718Z,42.80
2023-05-02T03:33:21.734Z,42.89
2023-05-02T03:35:51.838Z,42.94
2023-05-02T03:38:22.991Z,43.14
2023-05-02T03:40:52.164Z,43.15
2023-05-02T03:43:22.382Z,43.14
2023-05-02T03:45:52.477Z,43.18
2023-05-02T03:48:23.577Z,43.30
2023-05-02T03:50:54.445Z,43.17
2023-05-02T03:53:25.717Z,43.26
2023-05-02T03:55:55.985Z,43.36
2023-05-02T03:58:28.065Z,43.42
2023-05-02T04:00:57.673Z,43.35
2023-05-02T04:03:30.102Z,43.48
2023-05-02T04:06:02.221Z,43.68
2023-05-02T04:08:32.747Z,43.58
2023-05-02T04:11:02.067Z,43.62
2023-05-02T04:13:33.148Z,43.85
2023-05-02T04:16:03.005Z,43.60
2023-05-02T04:18:33.739Z,43.72
2023-05-02T04:21:04.255Z,43.92
2023-05-02T04:23:34.883Z,43.96
2023-05-02T04:26:05.262Z,44.06
2023-05-02T04:28:40.125Z,44.03
2023-05-02T04:31:12.451Z,44.08
2023-05-02T04:33:42.244Z,43.97
2023-05-02T04:36:15.891Z,44.08
2023-05-02T04:38:47.425Z,43.90
2023-05-02T04:41:20.760Z,43.99
2023-05-02T04:43:56.951Z,44.00
2023-05-02T04:46:27.284Z,44.24
2023-05-02T04:48:56.336Z,44.28
2023-05-02T04:51:26.208Z,44.09
2023-05-02T04:53:55.110Z,44.31
2023-05-02T04:56:26.164Z,44.29
2023-05-02T04:58:58.103Z,44.53
2023-05-02T05:01:29.671Z,44.33
2023-05-02T05:04:00.762Z,44.60
2023-05-02T05:06:32.642Z,44.57
2023-05-02T05:09:07.866Z,44.59
2023-05-02T05:11:40.059Z,44.58
2023-05-02T05:14:12.377Z,44.72
2023-05-02T05:16:44.325Z,44.84
2023-05-02T05:19:13.749Z,44.77
2023-05-02T05:21:45.337Z,44.99
2023-05-02T05:24:17.011Z,44.84
2023-05-02T05:26:47.935Z,44.84
2023-05-02T05:29:20.893Z,45.03
2023-05-02T05:31:50.965Z,45.12
2023-05-02T05:34:22.307Z,45.14
2023-05-02T05:36:54.006Z,45.21
2023-05-02T05:39:25.811Z,45.20
2023-05-02T05:41:59.039Z,45.29
2023-05-02T05:44:30.318Z,45.29
2023-05-02T05:47:01.684Z,45.22
2023-05-02T05:49:31.239Z,45.27
2023-05-02T05:52:03.234Z,45.17
2023-05-02T05:54:32.537Z,45.23
2023-05-02T05:57:04.152Z,45.37
2023-05-02T05:59:36.268Z,45.33
2023-05-02T06:02:06.430Z,45.43
2023-05-02T06:04:37.600Z,45.37
2023-05-02T06:07:27.216Z,45.45
2023-05-02T06:09:57.010Z,45.69
2023-05-02T06:12:27.589Z,45.58
2023-05-02T06:14:57.819Z,45.76
2023-05-02T06:17:27.554Z,45.65
2023-05-02T06:19:58.059Z,45.88
2023-05-02T06:22:32.577Z,45.83
2023-05-02T06:25:03.848Z,45.77
2023-05-02T06:27:34.870Z,46.03
2023-05-02T06:30:06.711Z,45.85
2023-05-02T06:32:36.682Z,45.95
2023-05-02T06:35:05.766Z,46.08
2023-05-02T06:37:37.252Z,46.04
2023-05-02T06:40:07.204Z,46.06
2023-05-02T06:42:37.655Z,46.05
2023-05-02T06:45:08.800Z,46.03
2023-05-02T06:47:38.514Z,45.98
2023-05-02T06:50:09.952Z,46.21
2023-05-02T06:52:41.417Z,46.25
2023-05-02T06:55:14.791Z,46.24
2023-05-02T06:57:44.870Z,46.37
2023-05-02T07:00:16.121Z,46.47
2023-05-02T07:02:47.786Z,46.53
2023-05-02T07:05:18.922Z,46.47
2023-05-02T07:07:48.761Z,46.49
2023-05-02T07:10:17.940Z,46.65
2023-05-02T07:12:49.789Z,46.62
2023-05-02T07:15:18.786Z,46.46
2023-05-02T07:17:50.918Z,46.46
2023-05-02T07:20:20.642Z,46.67
2023-05-02T07:22:50.444Z,46.67
2023-05-02T07:25:22.176Z,46.73
2023-05-02T07:27:58.464Z,46.78
2023-05-02T07:30:28.024Z,46.47
2023-05-02T07:33:01.571Z,46.55
2023-05-02T07:35:30.503Z,46.52
2023-05-02T07:38:01.296Z,46.43
2023-05-02T07:40:30.119Z,46.50
2023-05-02T07:43:00.646Z,46.35
2023-05-02T07:45:29.781Z,46.37
2023-05-02T07:48:02.423Z,46.42
2023-05-02T07:50:31.376Z,46.37
2023-05-02T07:53:00.830Z,46.48
2023-05-02T07:55:32.113Z,46.56
2023-05-02T07:58:01.862Z,46.61
2023-05-02T08:00:31.532Z,46.55
2023-05-02T08:03:01.080Z,46.68
2023-05-02T08:05:31.616Z,46.82
2023-05-02T08:08:04.474Z,46.93
2023-05-02T08:10:38.209Z,46.93
2023-05-02T08:13:09.086Z,47.10
2023-05-02T08:15:41.146Z,47.14
2023-05-02T08:18:12.774Z,47.27
2023-05-02T08:20:46.419Z,47.38
2023-05-02T08:23:16.460Z,47.33
2023-05-02T08:25:45.191Z,47.43
2023-05-02T08:28:15.831Z,47.48
2023-05-02T08:30:46.202Z,47.70
2023-05-02T08:33:17.347Z,47.72
2023-05-02T08:35:48.275Z,47.69
2023-05-02T08:38:17.018Z,47.73
2023-05-02T08:40:51.739Z,47.91
2023-05-02T08:43:21.660Z,48.13
2023-05-02T08:45:55.023Z,48.06
2023-05-02T08:48:25.503Z,48.16
2023-05-02T08:50:57.965Z,48.33
2023-05-02T08:53:28.581Z,48.19
2023-05-02T08:55:57.534Z,48.55
2023-05-02T08:58:28.196Z,48.40
2023-05-02T09:01:00.764Z,48.63
2023-05-02T09:03:37.669Z,48.50
2023-05-02T09:06:15.083Z,48.14
2023-05-02T09:08:46.961Z,48.08
2023-05-02T09:11:18.091Z,48.04
2023-05-02T09:13:47.222Z,48.05
2023-05-02T09:16:18.476Z,47.98
2023-05-02T09:18:49.880Z,48.20
2023-05-02T09:21:21.276Z,48.08
2023-05-02T09:23:51.474Z,48.30
2023-05-02T09:26:21.722Z,48.33
2023-05-02T09:28:54.612Z,48.37
2023-05-02T09:34:11.169Z,48.33
2023-05-02T09:36:41.813Z,48.44
2023-05-02T09:39:14.307Z,48.50
2023-05-02T09:41:47.388Z,48.64
2023-05-02T09:44:23.319Z,48.57
2023-05-02T09:46:56.328Z,48.75
2023-05-02T09:49:45.725Z,48.68
2023-05-02T09:52:18.242Z,48.72
2023-05-02T09:54:51.277Z,48.66
2023-05-02T09:57:22.291Z,48.70
2023-05-02T09:59:58.859Z,48.69
2023-05-02T10:02:37.833Z,48.53
2023-05-02T10:05:10.700Z,48.64
2023-05-02T10:07:43.124Z,48.72
2023-05-02T10:10:18.664Z,48.73
2023-05-02T10:12:54.909Z,48.77
2023-05-02T10:15:26.468Z,48.79
2023-05-02T10:17:59.057Z,48.63
2023-05-02T10:20:32.239Z,48.55
2023-05-02T10:23:03.778Z,48.50
2023-05-02T10:25:35.502Z,48.51
2023-05-02T10:28:05.855Z,48.47
2023-05-02T10:30:35.935Z,48.21
2023-05-02T10:33:07.403Z,47.98
2023-05-02T10:35:37.020Z,47.71
2023-05-02T10:38:10.290Z,47.45
2023-05-02T10:40:40.632Z,47.53
2023-05-02T10:43:14.196Z,47.18
2023-05-02T10:45:44.638Z,47.04
2023-05-02T10:48:27.804Z,46.92
2023-05-02T10:50:58.483Z,46.73
2023-05-02T10:53:37.534Z,46.49
2023-05-02T10:56:08.944Z,46.47
2023-05-02T10:58:41.172Z,46.28
2023-05-02T11:01:27.014Z,45.84
2023-05-02T11:03:57.679Z,45.69
2023-05-02T11:06:28.646Z,45.53
2023-05-02T11:09:17.707Z,45.33
2023-05-02T11:11:55.283Z,45.24
2023-05-02T11:14:28.596Z,45.37
2023-05-02T11:17:01.390Z,44.84
2023-05-02T11:19:52.265Z,45.08
2023-05-02T11:22:22.260Z,45.00
2023-05-02T11:24:53.937Z,44.51
2023-05-02T11:27:33.839Z,44.33
2023-05-02T11:30:07.508Z,43.91
2023-05-02T11:32:56.556Z,43.34
2023-05-02T11:35:41.013Z,43.47
2023-05-02T11:38:19.873Z,43.44
2023-05-02T11:41:20.969Z,42.83
2023-05-02T11:44:05.904Z,43.30
2023-05-02T11:46:38.897Z,41.70
2023-05-02T11:49:12.697Z,41.67
2023-05-02T11:51:45.497Z,41.68
2023-05-02T11:54:23.935Z,42.31
2023-05-02T11:57:43.249Z,42.43
2023-05-02T12:00:46.536Z,41.53
2023-05-02T12:03:35.292Z,41.12
2023-05-02T12:06:13.336Z,41.82
2023-05-02T12:08:45.359Z,41.74
2023-05-02T12:11:16.528Z,40.77
2023-05-02T12:13:47.573Z,40.46
2023-05-02T12:16:18.064Z,40.60
2023-05-02T12:18:49.817Z,40.11
2023-05-02T12:21:21.271Z,40.32
2023-05-02T12:23:57.409Z,40.51
2023-05-02T12:26:29.920Z,40.71
2023-05-02T12:28:59.654Z,40.97
2023-05-02T12:31:31.673Z,40.89
2023-05-02T12:34:01.800Z,40.81
2023-05-02T12:36:31.450Z,40.53
2023-05-02T12:39:04.873Z,40.70
2023-05-02T12:41:35.439Z,40.63
2023-05-02T12:44:05.896Z,40.73
2023-05-02T12:46:38.138Z,40.87
2023-05-02T12:49:14.378Z,40.65
2023-05-02T12:51:53.529Z,40.66
2023-05-02T12:54:22.819Z,40.59
2023-05-02T12:56:52.675Z,40.23
2023-05-02T12:59:30.006Z,40.37
2023-05-02T13:02:01.658Z,40.30
2023-05-02T13:04:35.035Z,39.77
2023-05-02T13:07:05.581Z,39.90
2023-05-02T13:09:36.529Z,39.73
2023-05-02T13:12:06.621Z,39.94
2023-05-02T13:14:35.280Z,40.06
2023-05-02T13:17:06.724Z,39.35
2023-05-02T13:19:35.604Z,39.47
2023-05-02T13:22:07.892Z,39.28
2023-05-02T13:24:40.347Z,39.48
2023-05-02T13:27:11.188Z,39.48
2023-05-02T13:29:41.741Z,39.31
2023-05-02T13:32:12.352Z,39.11
2023-05-02T13:34:41.428Z,39.04
2023-05-02T13:37:12.861Z,38.97
2023-05-02T13:39:41.626Z,38.98
2023-05-02T13:42:14.344Z,39.12
2023-05-02T13:44:48.089Z,39.16
2023-05-02T13:47:18.681Z,38.79
2023-05-02T13:49:48.793Z,39.06
2023-05-02T13:52:18.592Z,39.20
2023-05-02T13:54:50.816Z,39.38
2023-05-02T13:57:20.222Z,39.06
2023-05-02T13:59:52.291Z,39.10
2023-05-02T14:02:21.407Z,39.06
2023-05-02T14:04:55.351Z,38.91
2023-05-02T14:07:24.322Z,39.04
2023-05-02T14:09:54.716Z,38.92
2023-05-02T14:12:23.564Z,39.04
2023-05-02T14:14:53.327Z,39.16
2023-05-02T14:17:25.636Z,39.24
2023-05-02T14:19:56.302Z,39.26
2023-05-02T14:22:28.024Z,39.39
2023-05-02T14:24:58.522Z,39.47
2023-05-02T14:27:27.800Z,39.64
2023-05-02T14:30:01.987Z,39.57
2023-05-02T14:32:35.872Z,39.51
2023-05-02T14:35:05.348Z,39.56
2023-05-02T14:37:38.642Z,39.64
2023-05-02T14:40:11.701Z,39.70
2023-05-02T14:42:43.295Z,39.60
2023-05-02T14:45:12.849Z,39.69
2023-05-02T14:47:42.442Z,39.72
2023-05-02T14:50:11.642Z,39.73
2023-05-02T14:52:40.370Z,39.85
2023-05-02T14:55:11.331Z,39.91
2023-05-02T14:57:43.941Z,39.92
2023-05-02T15:00:21.920Z,40.07
2023-05-02T15:02:51.816Z,40.03
2023-05-02T15:05:47.683Z,39.99
2023-05-02T15:08:24.582Z,40.17
2023-05-02T15:10:57.445Z,40.23
2023-05-02T15:13:26.681Z,40.22
2023-05-02T15:16:11.249Z,40.28
2023-05-02T15:18:40.170Z,40.34
2023-05-02T15:21:21.250Z,40.55
2023-05-02T15:23:51.517Z,40.54
2023-05-02T15:26:20.457Z,40.66
2023-05-02T15:28:50.212Z,40.73
2023-05-02T15:31:21.737Z,40.75
2023-05-02T15:33:56.589Z,40.88
2023-05-02T15:36:36.437Z,40.77
2023-05-02T15:39:07.462Z,41.06
2023-05-02T15:41:37.151Z,41.05
2023-05-02T15:44:18.542Z,41.20
2023-05-02T15:46:49.966Z,41.12
2023-05-02T15:49:18.800Z,41.25
2023-05-02T15:51:52.143Z,41.25
2023-05-02T15:54:46.457Z,41.31
2023-05-02T15:57:15.445Z,41.41
2023-05-02T15:59:44.362Z,41.53
2023-05-02T16:02:13.537Z,41.59
2023-05-02T16:04:43.488Z,41.73
2023-05-02T16:07:12.718Z,41.79
2023-05-02T16:09:43.110Z,41.81
2023-05-02T16:12:15.088Z,41.86
2023-05-02T16:14:45.854Z,42.08
2023-05-02T16:17:15.452Z,42.08
2023-05-02T16:19:44.181Z,42.23
2023-05-02T16:22:18.258Z,42.37
2023-05-02T16:24:47.559Z,42.48
2023-05-02T16:27:17.445Z,42.55
2023-05-02T16:30:08.447Z,42.61
2023-05-02T16:32:40.022Z,42.80
2023-05-02T16:35:13.402Z,42.84
2023-05-02T16:37:58.735Z,42.92
2023-05-02T16:40:28.505Z,42.86
2023-05-02T16:42:58.632Z,43.04
2023-05-02T16:45:31.456Z,43.24
2023-05-02T16:48:27.398Z,43.27
2023-05-02T16:50:57.489Z,43.46
2023-05-02T16:53:29.526Z,43.45
2023-05-02T16:55:59.998Z,43.67
2023-05-02T16:58:34.181Z,43.77
2023-05-02T17:01:05.697Z,43.94
2023-05-02T17:03:34.994Z,44.04
2023-05-02T17:06:04.576Z,44.22
2023-05-02T17:08:35.048Z,44.26
2023-05-02T17:11:05.729Z,44.34
2023-05-02T17:13:37.244Z,44.42
2023-05-02T17:16:08.223Z,44.74
2023-05-02T17:18:41.830Z,44.44
2023-05-02T17:21:10.500Z,44.87
2023-05-02T17:23:44.793Z,45.03
2023-05-02T17:26:17.096Z,44.96
2023-05-02T17:28:48.082Z,45.26
2023-05-02T17:31:31.504Z,45.43
2023-05-02T17:34:30.986Z,45.34
2023-05-02T17:37:00.644Z,45.35
2023-05-02T17:39:34.295Z,45.63
2023-05-02T17:57:30.975Z,46.02
2023-05-02T18:00:01.296Z,46.22
2023-05-02T18:02:31.575Z,46.30
2023-05-02T18:05:05.123Z,46.46
2023-05-02T18:07:37.618Z,46.44
2023-05-02T18:10:10.495Z,46.51
2023-05-02T18:12:42.776Z,46.75
2023-05-02T18:15:16.131Z,46.73
2023-05-02T18:17:51.370Z,46.83
2023-05-02T18:20:23.545Z,46.77
2023-05-02T18:22:58.131Z,46.80
2023-05-02T18:25:27.813Z,47.04
2023-05-02T18:28:02.839Z,46.97
2023-05-02T18:30:44.814Z,47.17
2023-05-02T18:33:26.602Z,47.25
2023-05-02T18:36:02.055Z,47.21
2023-05-02T18:38:46.801Z,47.39
2023-05-02T18:41:34.790Z,47.31
2023-05-02T18:44:20.965Z,47.42
2023-05-02T18:46:52.940Z,47.59
2023-05-02T18:49:26.417Z,47.75
2023-05-02T18:52:00.223Z,47.78
2023-05-02T18:54:48.347Z,47.84
2023-05-02T18:57:41.596Z,47.89
2023-05-02T19:00:17.488Z,47.95
2023-05-02T19:03:22.956Z,48.03
2023-05-02T19:06:02.737Z,48.08
2023-05-02T19:08:33.871Z,48.18
2023-05-02T19:11:06.886Z,48.13
2023-05-02T19:13:39.995Z,48.20
2023-05-02T19:16:14.980Z,48.33
2023-05-02T19:18:44.629Z,48.24
2023-05-02T19:21:16.394Z,48.51
2023-05-02T19:23:46.896Z,48.50
2023-05-02T19:26:24.883Z,48.43
2023-05-02T19:28:58.527Z,48.47
2023-05-02T19:31:29.069Z,48.51
2023-05-02T19:34:04.837Z,48.67
2023-05-02T19:36:46.714Z,48.66
2023-05-02T19:39:17.503Z,48.63
2023-05-02T19:41:51.511Z,48.83
2023-05-02T19:44:23.006Z,48.83
2023-05-02T19:46:53.755Z,48.87
2023-05-02T19:49:28.015Z,49.01
2023-05-02T19:51:59.749Z,49.06
2023-05-02T19:54:31.285Z,49.00
2023-05-02T19:57:05.117Z,49.05
2023-05-02T19:59:38.227Z,49.08
2023-05-02T20:02:14.008Z,49.39
2023-05-02T20:04:45.806Z,49.17
2023-05-02T20:07:17.891Z,49.39
2023-05-02T20:09:48.639Z,49.57
2023-05-02T20:12:20.798Z,49.68
2023-05-02T20:14:56.052Z,49.78
2023-05-02T20:17:46.807Z,49.87
2023-05-02T20:20:17.469Z,49.85
2023-05-02T20:22:46.701Z,49.99
2023-05-02T20:25:16.901Z,50.20
2023-05-02T20:27:48.847Z,50.26
2023-05-02T20:30:19.091Z,50.38
2023-05-02T20:32:47.953Z,50.55
2023-05-02T20:35:17.610Z,50.65
2023-05-02T20:37:47.249Z,50.57
2023-05-02T20:40:16.170Z,50.55
2023-05-02T20:42:45.417Z,50.82
2023-05-02T20:45:16.964Z,50.91
2023-05-02T20:47:47.520Z,50.78
2023-05-02T20:50:20.203Z,51.07
2023-05-02T20:52:54.473Z,51.16
2023-05-02T20:55:25.943Z,51.13
2023-05-02T20:57:57.748Z,51.08
2023-05-02T21:00:27.667Z,51.19
2023-05-02T21:02:57.171Z,51.31
2023-05-02T21:05:27.726Z,51.22
2023-05-02T21:07:56.444Z,51.33
2023-05-02T21:10:30.172Z,51.48
2023-05-02T21:13:00.716Z,51.38
2023-05-02T21:15:31.478Z,51.62
2023-05-02T21:18:05.957Z,51.65
2023-05-02T21:20:38.566Z,51.58
2023-05-02T21:23:07.881Z,51.72
2023-05-02T21:25:36.643Z,51.80
2023-05-02T21:28:06.308Z,51.75
2023-05-02T21:30:36.021Z,51.90
2023-05-02T21:33:04.818Z,51.97
2023-05-02T21:35:35.548Z,52.23
2023-05-02T21:38:04.677Z,52.12
2023-05-02T21:40:35.350Z,52.28
2023-05-02T21:43:05.746Z,52.39
2023-05-02T21:45:37.099Z,52.48
2023-05-02T21:48:07.400Z,52.43
2023-05-02T21:50:40.285Z,52.18
2023-05-02T21:53:11.516Z,52.32
2023-05-02T21:55:42.787Z,52.50
2023-05-02T21:58:15.189Z,52.29
2023-05-02T22:00:44.488Z,52.21
2023-05-02T22:03:16.138Z,52.35
2023-05-02T22:05:45.923Z,52.19
2023-05-02T22:08:16.302Z,52.38
2023-05-02T22:10:49.961Z,52.46
2023-05-02T22:13:21.860Z,52.37
2023-05-02T22:15:51.259Z,52.33
2023-05-02T22:18:20.017Z,52.22
2023-05-02T22:20:49.960Z,52.12
2023-05-02T22:23:22.030Z,52.07
2023-05-02T22:25:51.033Z,52.02
2023-05-02T22:28:22.298Z,52.03
2023-05-02T22:34:23.862Z,51.99
2023-05-02T22:49:10.006Z,51.96
2023-05-02T22:51:41.318Z,52.02
2023-05-02T22:54:22.797Z,52.19
2023-05-02T22:56:52.980Z,52.31
2023-05-02T23:00:19.441Z,52.20
2023-05-02T23:02:48.563Z,52.17
2023-05-02T23:05:21.633Z,52.37
2023-05-02T23:07:51.205Z,52.41
2023-05-02T23:10:24.624Z,52.36
2023-05-02T23:12:56.185Z,52.35
2023-05-02T23:15:26.642Z,52.21
2023-05-02T23:17:57.781Z,52.42
2023-05-02T23:20:29.955Z,52.42
2023-05-02T23:23:00.853Z,52.67
2023-05-02T23:25:31.402Z,52.78
2023-05-02T23:28:01.506Z,52.49
2023-05-02T23:30:31.727Z,52.81
2023-05-02T23:33:03.259Z,52.73
2023-05-02T23:35:32.802Z,52.60
2023-05-02T23:38:05.174Z,52.73
2023-05-02T23:40:35.464Z,53.08
2023-05-02T23:43:07.845Z,52.91
2023-05-02T23:45:37.144Z,53.09
2023-05-02T23:48:07.882Z,53.09
2023-05-02T23:50:38.708Z,53.12
2023-05-02T23:53:11.730Z,53.32
2023-05-02T23:55:41.696Z,53.24
2023-05-02T23:58:12.236Z,53.37
